sensor_id;sensor_type;location;lat;lon;timestamp;pressure;altitude;pressure_sealevel;temperature;humidity
49835;BME280;35729;52.090;13.162;2022-12-07T00:01:46;100816.63;;;1.14;98.46
49835;BME280;35729;52.090;13.162;2022-12-07T00:04:18;100814.88;;;1.13;99.82
49835;BME280;35729;52.090;13.162;2022-12-07T00:06:50;100810.50;;;1.09;98.90
49835;BME280;35729;52.090;13.162;2022-12-07T00:09:20;100810.50;;;1.09;99.42
49835;BME280;35729;52.090;13.162;2022-12-07T00:11:50;100805.31;;;1.08;100.00
49835;BME280;35729;52.090;13.162;2022-12-07T00:14:19;100798.38;;;1.05;99.53
49835;BME280;35729;52.090;13.162;2022-12-07T00:16:49;100797.44;;;1.00;99.39
49835;BME280;35729;52.090;13.162;2022-12-07T00:19:20;100801.69;;;0.96;98.49
49835;BME280;35729;52.090;13.162;2022-12-07T00:21:49;100803.31;;;0.93;98.22
49835;BME280;35729;52.090;13.162;2022-12-07T00:24:17;100798.94;;;0.89;97.69
49835;BME280;35729;52.090;13.162;2022-12-07T00:26:46;100803.19;;;0.85;97.42
49835;BME280;35729;52.090;13.162;2022-12-07T00:29:16;100805.69;;;0.82;97.50
49835;BME280;35729;52.090;13.162;2022-12-07T00:31:45;100797.91;;;0.79;97.95
49835;BME280;35729;52.090;13.162;2022-12-07T00:34:17;100803.03;;;0.77;99.11
49835;BME280;35729;52.090;13.162;2022-12-07T00:36:49;100799.53;;;0.74;97.95
49835;BME280;35729;52.090;13.162;2022-12-07T00:39:17;100792.59;;;0.71;99.20
49835;BME280;35729;52.090;13.162;2022-12-07T00:41:46;100791.69;;;0.71;99.54
49835;BME280;35729;52.090;13.162;2022-12-07T00:44:15;100796.00;;;0.70;99.19
49835;BME280;35729;52.090;13.162;2022-12-07T00:46:43;100795.97;;;0.69;99.88
49835;BME280;35729;52.090;13.162;2022-12-07T00:49:12;100792.50;;;0.67;99.60
49835;BME280;35729;52.090;13.162;2022-12-07T00:51:40;100791.59;;;0.64;99.88
49835;BME280;35729;52.090;13.162;2022-12-07T00:54:11;100787.31;;;0.65;100.00
49835;BME280;35729;52.090;13.162;2022-12-07T00:56:40;100791.59;;;0.64;100.00
49835;BME280;35729;52.090;13.162;2022-12-07T00:59:12;100796.72;;;0.63;100.00
49835;BME280;35729;52.090;13.162;2022-12-07T01:01:42;100783.75;;;0.60;100.00
49835;BME280;35729;52.090;13.162;2022-12-07T01:04:10;100791.50;;;0.60;100.00
49835;BME280;35729;52.090;13.162;2022-12-07T01:06:39;100787.19;;;0.60;100.00
49835;BME280;35729;52.090;13.162;2022-12-07T01:09:07;100781.09;;;0.57;100.00
49835;BME280;35729;52.090;13.162;2022-12-07T01:11:38;100775.88;;;0.54;100.00
49835;BME280;35729;52.090;13.162;2022-12-07T01:14:08;100779.28;;;0.51;100.00
49835;BME280;35729;52.090;13.162;2022-12-07T01:16:38;100773.16;;;0.46;99.94
49835;BME280;35729;52.090;13.162;2022-12-07T01:19:07;100770.50;;;0.43;100.00
49835;BME280;35729;52.090;13.162;2022-12-07T01:21:35;100770.44;;;0.40;100.00
49835;BME280;35729;52.090;13.162;2022-12-07T01:24:06;100764.38;;;0.38;100.00
49835;BME280;35729;52.090;13.162;2022-12-07T01:26:37;100759.16;;;0.33;100.00
49835;BME280;35729;52.090;13.162;2022-12-07T01:29:06;100763.41;;;0.32;100.00
49835;BME280;35729;52.090;13.162;2022-12-07T01:31:35;100762.47;;;0.29;100.00
49835;BME280;35729;52.090;13.162;2022-12-07T01:34:03;100759.00;;;0.25;100.00
49835;BME280;35729;52.090;13.162;2022-12-07T01:36:34;100747.66;;;0.20;100.00
49835;BME280;35729;52.090;13.162;2022-12-07T01:39:05;100748.44;;;0.16;99.67
49835;BME280;35729;52.090;13.162;2022-12-07T01:41:35;100745.00;;;0.14;99.76
49835;BME280;35729;52.090;13.162;2022-12-07T01:44:25;100744.06;;;0.10;99.95
49835;BME280;35729;52.090;13.162;2022-12-07T01:46:56;100743.13;;;0.08;99.91
49835;BME280;35729;52.090;13.162;2022-12-07T01:49:29;100734.47;;;0.06;100.00
49835;BME280;35729;52.090;13.162;2022-12-07T01:52:10;100727.56;;;0.04;99.88
49835;BME280;35729;52.090;13.162;2022-12-07T01:54:42;100726.66;;;0.00;99.64
49835;BME280;35729;52.090;13.162;2022-12-07T01:57:13;100719.75;;;-0.01;99.52
49835;BME280;35729;52.090;13.162;2022-12-07T01:59:48;100716.13;;;-0.08;98.83
49835;BME280;35729;52.090;13.162;2022-12-07T02:02:20;100715.28;;;-0.08;99.74
49835;BME280;35729;52.090;13.162;2022-12-07T02:04:52;100718.56;;;-0.14;99.38
49835;BME280;35729;52.090;13.162;2022-12-07T02:07:23;100707.34;;;-0.18;99.50
49835;BME280;35729;52.090;13.162;2022-12-07T02:09:51;100713.25;;;-0.22;99.49
49835;BME280;35729;52.090;13.162;2022-12-07T02:12:20;100713.22;;;-0.25;99.76
49835;BME280;35729;52.090;13.162;2022-12-07T02:14:53;100705.38;;;-0.28;99.75
49835;BME280;35729;52.090;13.162;2022-12-07T02:17:25;100713.09;;;-0.29;99.72
49835;BME280;35729;52.090;13.162;2022-12-07T02:20:21;100704.47;;;-0.31;100.00
49835;BME280;35729;52.090;13.162;2022-12-07T02:26:07;100707.84;;;-0.34;100.00
49835;BME280;35729;52.090;13.162;2022-12-07T02:28:56;100697.47;;;-0.37;100.00
49835;BME280;35729;52.090;13.162;2022-12-07T02:31:36;100704.38;;;-0.35;100.00
49835;BME280;35729;52.090;13.162;2022-12-07T02:34:11;100702.63;;;-0.37;100.00
49835;BME280;35729;52.090;13.162;2022-12-07T02:36:46;100695.72;;;-0.38;100.00
49835;BME280;35729;52.090;13.162;2022-12-07T02:39:25;100698.28;;;-0.38;100.00
49835;BME280;35729;52.090;13.162;2022-12-07T02:41:59;100690.56;;;-0.38;100.00
49835;BME280;35729;52.090;13.162;2022-12-07T02:44:31;100694.88;;;-0.37;100.00
49835;BME280;35729;52.090;13.162;2022-12-07T02:47:03;100677.72;;;-0.37;100.00
49835;BME280;35729;52.090;13.162;2022-12-07T02:49:33;100673.44;;;-0.36;100.00
49835;BME280;35729;52.090;13.162;2022-12-07T02:52:04;100673.47;;;-0.33;100.00
49835;BME280;35729;52.090;13.162;2022-12-07T02:54:32;100670.91;;;-0.33;100.00
49835;BME280;35729;52.090;13.162;2022-12-07T02:57:10;100671.81;;;-0.31;100.00
49835;BME280;35729;52.090;13.162;2022-12-07T02:59:52;100669.28;;;-0.28;100.00
49835;BME280;35729;52.090;13.162;2022-12-07T03:02:34;100668.47;;;-0.27;100.00
49835;BME280;35729;52.090;13.162;2022-12-07T03:05:15;100666.78;;;-0.25;100.00
49835;BME280;35729;52.090;13.162;2022-12-07T03:07:56;100664.25;;;-0.23;100.00
49835;BME280;35729;52.090;13.162;2022-12-07T03:10:33;100654.84;;;-0.21;100.00
49835;BME280;35729;52.090;13.162;2022-12-07T03:13:07;100657.41;;;-0.21;100.00
49835;BME280;35729;52.090;13.162;2022-12-07T03:15:45;100653.13;;;-0.19;100.00
49835;BME280;35729;52.090;13.162;2022-12-07T03:18:18;100648.88;;;-0.19;100.00
49835;BME280;35729;52.090;13.162;2022-12-07T03:20:51;100653.19;;;-0.18;100.00
49835;BME280;35729;52.090;13.162;2022-12-07T03:23:22;100651.50;;;-0.15;100.00
49835;BME280;35729;52.090;13.162;2022-12-07T03:25:56;100644.69;;;-0.13;100.00
49835;BME280;35729;52.090;13.162;2022-12-07T03:28:29;100641.28;;;-0.12;100.00
49835;BME280;35729;52.090;13.162;2022-12-07T03:31:05;100630.13;;;-0.10;100.00
49835;BME280;35729;52.090;13.162;2022-12-07T03:33:42;100622.44;;;-0.08;100.00
49835;BME280;35729;52.090;13.162;2022-12-07T03:36:19;100615.59;;;-0.06;100.00
49835;BME280;35729;52.090;13.162;2022-12-07T03:38:52;100614.78;;;-0.04;100.00
49835;BME280;35729;52.090;13.162;2022-12-07T03:41:25;100602.78;;;-0.02;100.00
49835;BME280;35729;52.090;13.162;2022-12-07T03:43:55;100607.13;;;0.01;100.00
49835;BME280;35729;52.090;13.162;2022-12-07T03:46:34;100602.00;;;0.03;100.00
49835;BME280;35729;52.090;13.162;2022-12-07T03:49:11;100602.06;;;0.06;100.00
49835;BME280;35729;52.090;13.162;2022-12-07T03:51:48;100603.81;;;0.08;100.00
49835;BME280;35729;52.090;13.162;2022-12-07T03:54:22;100592.69;;;0.11;100.00
49835;BME280;35729;52.090;13.162;2022-12-07T03:56:52;100591.03;;;0.13;100.00
49835;BME280;35729;52.090;13.162;2022-12-07T03:59:22;100586.72;;;0.13;100.00
49835;BME280;35729;52.090;13.162;2022-12-07T04:01:56;100570.41;;;0.16;100.00
49835;BME280;35729;52.090;13.162;2022-12-07T04:04:25;100573.91;;;0.18;100.00
49835;BME280;35729;52.090;13.162;2022-12-07T04:06:53;100568.78;;;0.20;100.00
49835;BME280;35729;52.090;13.162;2022-12-07T04:09:22;100574.78;;;0.19;100.00
49835;BME280;35729;52.090;13.162;2022-12-07T04:11:51;100561.88;;;0.20;100.00
49835;BME280;35729;52.090;13.162;2022-12-07T04:14:19;100550.72;;;0.21;100.00
49835;BME280;35729;52.090;13.162;2022-12-07T04:16:49;100555.91;;;0.23;100.00
49835;BME280;35729;52.090;13.162;2022-12-07T04:19:22;100554.22;;;0.23;100.00
49835;BME280;35729;52.090;13.162;2022-12-07T04:21:51;100550.81;;;0.24;100.00
49835;BME280;35729;52.090;13.162;2022-12-07T04:24:20;100542.16;;;0.24;100.00
49835;BME280;35729;52.090;13.162;2022-12-07T04:26:55;100542.16;;;0.24;100.00
49835;BME280;35729;52.090;13.162;2022-12-07T04:29:24;100540.47;;;0.24;100.00
49835;BME280;35729;52.090;13.162;2022-12-07T04:31:53;100545.66;;;0.26;100.00
49835;BME280;35729;52.090;13.162;2022-12-07T04:34:31;100547.38;;;0.25;100.00
49835;BME280;35729;52.090;13.162;2022-12-07T04:36:59;100547.41;;;0.27;100.00
49835;BME280;35729;52.090;13.162;2022-12-07T04:39:30;100549.97;;;0.27;100.00
49835;BME280;35729;52.090;13.162;2022-12-07T04:41:59;100542.25;;;0.27;100.00
49835;BME280;35729;52.090;13.162;2022-12-07T04:44:29;100552.50;;;0.24;100.00
49835;BME280;35729;52.090;13.162;2022-12-07T04:46:57;100547.31;;;0.22;100.00
49835;BME280;35729;52.090;13.162;2022-12-07T04:49:26;100542.13;;;0.19;100.00
49835;BME280;35729;52.090;13.162;2022-12-07T04:51:57;100546.34;;;0.15;100.00
49835;BME280;35729;52.090;13.162;2022-12-07T04:54:28;100541.91;;;0.08;100.00
49835;BME280;35729;52.090;13.162;2022-12-07T04:56:57;100536.72;;;0.07;100.00
49835;BME280;35729;52.090;13.162;2022-12-07T04:59:26;100540.13;;;0.04;100.00
49835;BME280;35729;52.090;13.162;2022-12-07T05:01:54;100522.88;;;0.02;100.00
49835;BME280;35729;52.090;13.162;2022-12-07T05:04:22;100533.19;;;0.00;100.00
49835;BME280;35729;52.090;13.162;2022-12-07T05:06:51;100521.00;;;-0.07;100.00
49835;BME280;35729;52.090;13.162;2022-12-07T05:09:22;100521.88;;;-0.05;100.00
49835;BME280;35729;52.090;13.162;2022-12-07T05:11:50;100516.72;;;-0.07;100.00
49835;BME280;35729;52.090;13.162;2022-12-07T05:14:20;100513.28;;;-0.07;100.00
49835;BME280;35729;52.090;13.162;2022-12-07T05:16:50;100515.00;;;-0.06;100.00
49835;BME280;35729;52.090;13.162;2022-12-07T05:19:19;100515.00;;;-0.06;100.00
49835;BME280;35729;52.090;13.162;2022-12-07T05:21:48;100516.72;;;-0.05;100.00
49835;BME280;35729;52.090;13.162;2022-12-07T05:24:16;100510.72;;;-0.04;100.00
49835;BME280;35729;52.090;13.162;2022-12-07T05:26:48;100516.81;;;-0.02;100.00
49835;BME280;35729;52.090;13.162;2022-12-07T05:29:17;100515.97;;;-0.01;100.00
49835;BME280;35729;52.090;13.162;2022-12-07T05:31:45;100512.56;;;0.02;100.00
49835;BME280;35729;52.090;13.162;2022-12-07T05:34:14;100516.03;;;0.04;100.00
49835;BME280;35729;52.090;13.162;2022-12-07T05:36:42;100512.63;;;0.06;100.00
49835;BME280;35729;52.090;13.162;2022-12-07T05:39:11;100504.06;;;0.09;100.00
49835;BME280;35729;52.090;13.162;2022-12-07T05:41:39;100502.41;;;0.11;100.00
49835;BME280;35729;52.090;13.162;2022-12-07T05:44:23;100501.59;;;0.13;100.00
49835;BME280;35729;52.090;13.162;2022-12-07T05:46:51;100493.03;;;0.16;100.00
49835;BME280;35729;52.090;13.162;2022-12-07T05:49:20;100500.84;;;0.19;100.00
49835;BME280;35729;52.090;13.162;2022-12-07T05:51:48;100495.69;;;0.21;100.00
49835;BME280;35729;52.090;13.162;2022-12-07T05:54:17;100492.28;;;0.22;100.00
49835;BME280;35729;52.090;13.162;2022-12-07T05:56:45;100483.72;;;0.26;100.00
49835;BME280;35729;52.090;13.162;2022-12-07T05:59:14;100486.31;;;0.26;100.00
49835;BME280;35729;52.090;13.162;2022-12-07T06:01:54;100486.31;;;0.27;100.00
49835;BME280;35729;52.090;13.162;2022-12-07T06:04:24;100488.94;;;0.29;100.00
49835;BME280;35729;52.090;13.162;2022-12-07T06:06:53;100482.94;;;0.31;100.00
49835;BME280;35729;52.090;13.162;2022-12-07T06:09:22;100483.84;;;0.32;100.00
49835;BME280;35729;52.090;13.162;2022-12-07T06:11:52;100477.84;;;0.35;100.00
49835;BME280;35729;52.090;13.162;2022-12-07T06:14:32;100484.78;;;0.37;100.00
49835;BME280;35729;52.090;13.162;2022-12-07T06:17:04;100481.38;;;0.40;100.00
49835;BME280;35729;52.090;13.162;2022-12-07T06:19:33;100470.19;;;0.39;100.00
49835;BME280;35729;52.090;13.162;2022-12-07T06:22:02;100475.38;;;0.42;100.00
49835;BME280;35729;52.090;13.162;2022-12-07T06:24:31;100469.41;;;0.46;100.00
49835;BME280;35729;52.090;13.162;2022-12-07T06:26:59;100475.47;;;0.48;100.00
49835;BME280;35729;52.090;13.162;2022-12-07T06:29:28;100466.91;;;0.51;100.00
49835;BME280;35729;52.090;13.162;2022-12-07T06:31:56;100465.22;;;0.53;100.00
49835;BME280;35729;52.090;13.162;2022-12-07T06:34:27;100465.25;;;0.55;100.00
49835;BME280;35729;52.090;13.162;2022-12-07T06:36:56;100461.84;;;0.59;100.00
49835;BME280;35729;52.090;13.162;2022-12-07T06:39:26;100467.94;;;0.61;100.00
49835;BME280;35729;52.090;13.162;2022-12-07T06:41:55;100461.03;;;0.63;100.00
49835;BME280;35729;52.090;13.162;2022-12-07T06:44:24;100453.31;;;0.63;100.00
49835;BME280;35729;52.090;13.162;2022-12-07T06:46:52;100454.28;;;0.70;100.00
49835;BME280;35729;52.090;13.162;2022-12-07T06:49:21;100461.19;;;0.72;100.00
49835;BME280;35729;52.090;13.162;2022-12-07T06:51:52;100464.69;;;0.76;100.00
49835;BME280;35729;52.090;13.162;2022-12-07T06:54:21;100466.44;;;0.78;100.00
49835;BME280;35729;52.090;13.162;2022-12-07T06:56:50;100472.50;;;0.82;100.00
49835;BME280;35729;52.090;13.162;2022-12-07T06:59:18;100469.09;;;0.85;100.00
49835;BME280;35729;52.090;13.162;2022-12-07T07:01:46;100463.97;;;0.88;100.00
49835;BME280;35729;52.090;13.162;2022-12-07T07:04:15;100470.91;;;0.90;100.00
49835;BME280;35729;52.090;13.162;2022-12-07T07:06:43;100466.66;;;0.94;100.00
49835;BME280;35729;52.090;13.162;2022-12-07T07:09:15;100472.75;;;0.99;100.00
49835;BME280;35729;52.090;13.162;2022-12-07T07:11:43;100479.69;;;1.03;100.00
49835;BME280;35729;52.090;13.162;2022-12-07T07:14:12;100479.75;;;1.06;100.00
49835;BME280;35729;52.090;13.162;2022-12-07T07:16:44;100476.34;;;1.10;100.00
49835;BME280;35729;52.090;13.162;2022-12-07T07:19:12;100489.28;;;1.13;100.00
49835;BME280;35729;52.090;13.162;2022-12-07T07:21:41;100479.00;;;1.17;100.00
49835;BME280;35729;52.090;13.162;2022-12-07T07:24:09;100478.16;;;1.19;100.00
49835;BME280;35729;52.090;13.162;2022-12-07T07:26:41;100473.00;;;1.21;100.00
49835;BME280;35729;52.090;13.162;2022-12-07T07:29:09;100479.91;;;1.22;100.00
49835;BME280;35729;52.090;13.162;2022-12-07T07:31:38;100480.78;;;1.22;100.00
49835;BME280;35729;52.090;13.162;2022-12-07T07:34:06;100473.91;;;1.24;100.00
49835;BME280;35729;52.090;13.162;2022-12-07T07:36:35;100480.78;;;1.24;100.00
49835;BME280;35729;52.090;13.162;2022-12-07T07:39:03;100469.66;;;1.26;100.00
49835;BME280;35729;52.090;13.162;2022-12-07T07:41:32;100478.25;;;1.27;100.00
49835;BME280;35729;52.090;13.162;2022-12-07T07:44:03;100474.84;;;1.28;100.00
49835;BME280;35729;52.090;13.162;2022-12-07T07:46:32;100474.00;;;1.30;100.00
49835;BME280;35729;52.090;13.162;2022-12-07T07:49:00;100474.88;;;1.33;100.00
49835;BME280;35729;52.090;13.162;2022-12-07T07:51:29;100475.75;;;1.33;100.00
49835;BME280;35729;52.090;13.162;2022-12-07T07:53:57;100475.78;;;1.36;100.00
49835;BME280;35729;52.090;13.162;2022-12-07T07:56:26;100476.66;;;1.38;100.00
49835;BME280;35729;52.090;13.162;2022-12-07T07:58:54;100482.69;;;1.39;100.00
49835;BME280;35729;52.090;13.162;2022-12-07T08:01:26;100475.84;;;1.42;100.00
49835;BME280;35729;52.090;13.162;2022-12-07T08:03:54;100486.25;;;1.45;100.00
49835;BME280;35729;52.090;13.162;2022-12-07T08:06:23;100475.91;;;1.49;100.00
49835;BME280;35729;52.090;13.162;2022-12-07T08:08:52;100482.81;;;1.50;100.00
49835;BME280;35729;52.090;13.162;2022-12-07T08:11:20;100471.66;;;1.52;100.00
49835;BME280;35729;52.090;13.162;2022-12-07T08:13:49;100481.16;;;1.55;100.00
49835;BME280;35729;52.090;13.162;2022-12-07T08:16:17;100469.13;;;1.57;100.00
49835;BME280;35729;52.090;13.162;2022-12-07T08:18:48;100469.97;;;1.56;100.00
49835;BME280;35729;52.090;13.162;2022-12-07T08:21:17;100476.91;;;1.63;100.00
49835;BME280;35729;52.090;13.162;2022-12-07T08:23:45;100482.13;;;1.65;100.00
49835;BME280;35729;52.090;13.162;2022-12-07T08:26:15;100479.56;;;1.68;100.00
49835;BME280;35729;52.090;13.162;2022-12-07T08:28:44;100481.31;;;1.70;100.00
49835;BME280;35729;52.090;13.162;2022-12-07T08:31:16;100477.03;;;1.72;100.00
49835;BME280;35729;52.090;13.162;2022-12-07T08:33:47;100478.78;;;1.75;100.00
49835;BME280;35729;52.090;13.162;2022-12-07T08:36:17;100478.78;;;1.76;100.00
49835;BME280;35729;52.090;13.162;2022-12-07T08:38:47;100483.13;;;1.77;100.00
49835;BME280;35729;52.090;13.162;2022-12-07T08:41:15;100489.19;;;1.79;100.00
49835;BME280;35729;52.090;13.162;2022-12-07T08:43:44;100482.28;;;1.80;100.00
49835;BME280;35729;52.090;13.162;2022-12-07T08:46:17;100488.34;;;1.82;100.00
49835;BME280;35729;52.090;13.162;2022-12-07T08:48:52;100491.81;;;1.84;100.00
49835;BME280;35729;52.090;13.162;2022-12-07T08:51:23;100490.97;;;1.87;100.00
49835;BME280;35729;52.090;13.162;2022-12-07T08:53:52;100488.38;;;1.88;100.00
49835;BME280;35729;52.090;13.162;2022-12-07T08:56:21;100503.09;;;1.91;100.00
49835;BME280;35729;52.090;13.162;2022-12-07T08:58:50;100497.94;;;1.94;100.00
49835;BME280;35729;52.090;13.162;2022-12-07T09:01:19;100504.00;;;1.96;100.00
49835;BME280;35729;52.090;13.162;2022-12-07T09:03:50;100498.84;;;1.98;100.00
49835;BME280;35729;52.090;13.162;2022-12-07T09:06:18;100507.47;;;2.00;100.00
49835;BME280;35729;52.090;13.162;2022-12-07T09:08:49;100510.09;;;2.01;100.00
49835;BME280;35729;52.090;13.162;2022-12-07T09:11:19;100502.34;;;2.04;100.00
49835;BME280;35729;52.090;13.162;2022-12-07T09:13:47;100512.69;;;2.06;100.00
49835;BME280;35729;52.090;13.162;2022-12-07T09:16:16;100516.19;;;2.08;100.00
49835;BME280;35729;52.090;13.162;2022-12-07T09:18:44;100511.03;;;2.09;100.00
49835;BME280;35729;52.090;13.162;2022-12-07T09:21:15;100497.22;;;2.10;99.88
49835;BME280;35729;52.090;13.162;2022-12-07T09:23:44;100513.66;;;2.13;99.37
49835;BME280;35729;52.090;13.162;2022-12-07T09:26:12;100500.72;;;2.14;99.08
49835;BME280;35729;52.090;13.162;2022-12-07T09:28:41;100511.06;;;2.16;98.10
49835;BME280;35729;52.090;13.162;2022-12-07T09:31:09;100510.22;;;2.17;98.53
49835;BME280;35729;52.090;13.162;2022-12-07T09:33:38;100506.78;;;2.18;97.79
49835;BME280;35729;52.090;13.162;2022-12-07T09:36:07;100513.72;;;2.22;98.07
49835;BME280;35729;52.090;13.162;2022-12-07T09:38:38;100531.00;;;2.23;96.70
49835;BME280;35729;52.090;13.162;2022-12-07T09:41:07;100520.66;;;2.26;95.95
49835;BME280;35729;52.090;13.162;2022-12-07T09:43:38;100545.69;;;2.27;94.62
49835;BME280;35729;52.090;13.162;2022-12-07T09:46:09;100526.72;;;2.28;94.67
49835;BME280;35729;52.090;13.162;2022-12-07T09:48:42;100518.97;;;2.31;94.95
49835;BME280;35729;52.090;13.162;2022-12-07T09:51:15;100519.84;;;2.30;93.97
49835;BME280;35729;52.090;13.162;2022-12-07T09:54:12;100549.19;;;2.31;94.00
49835;BME280;35729;52.090;13.162;2022-12-07T09:56:42;100522.44;;;2.32;94.34
49835;BME280;35729;52.090;13.162;2022-12-07T09:59:15;100525.88;;;2.32;94.17
49835;BME280;35729;52.090;13.162;2022-12-07T10:01:46;100523.34;;;2.35;95.99
49835;BME280;35729;52.090;13.162;2022-12-07T10:04:18;100535.41;;;2.36;95.03
49835;BME280;35729;52.090;13.162;2022-12-07T10:06:47;100544.06;;;2.37;93.40
49835;BME280;35729;52.090;13.162;2022-12-07T10:09:20;100532.84;;;2.38;93.92
49835;BME280;35729;52.090;13.162;2022-12-07T10:12:05;100513.88;;;2.40;93.45
49835;BME280;35729;52.090;13.162;2022-12-07T10:14:35;100530.28;;;2.41;92.20
49835;BME280;35729;52.090;13.162;2022-12-07T10:17:28;100520.81;;;2.41;92.43
49835;BME280;35729;52.090;13.162;2022-12-07T10:20:13;100522.56;;;2.44;93.70
49835;BME280;35729;52.090;13.162;2022-12-07T10:22:54;100554.47;;;2.46;93.48
49835;BME280;35729;52.090;13.162;2022-12-07T10:25:29;100516.53;;;2.48;92.27
49835;BME280;35729;52.090;13.162;2022-12-07T10:28:00;100532.09;;;2.51;93.61
49835;BME280;35729;52.090;13.162;2022-12-07T10:30:29;100518.28;;;2.54;94.80
49835;BME280;35729;52.090;13.162;2022-12-07T10:33:26;100530.41;;;2.56;92.68
49835;BME280;35729;52.090;13.162;2022-12-07T10:35:55;100508.81;;;2.56;92.44
49835;BME280;35729;52.090;13.162;2022-12-07T10:38:24;100520.94;;;2.60;91.06
49835;BME280;35729;52.090;13.162;2022-12-07T10:41:07;100529.53;;;2.59;90.06
49835;BME280;35729;52.090;13.162;2022-12-07T10:43:36;100514.91;;;2.63;89.93
49835;BME280;35729;52.090;13.162;2022-12-07T10:49:11;100513.19;;;2.66;91.85
49835;BME280;35729;52.090;13.162;2022-12-07T10:51:52;100514.09;;;2.67;90.23
49835;BME280;35729;52.090;13.162;2022-12-07T10:54:29;100506.31;;;2.68;90.79
49835;BME280;35729;52.090;13.162;2022-12-07T10:57:19;100505.47;;;2.69;90.10
49835;BME280;35729;52.090;13.162;2022-12-07T11:00:06;100512.41;;;2.73;91.37
49835;BME280;35729;52.090;13.162;2022-12-07T11:03:02;100503.75;;;2.73;89.66
49835;BME280;35729;52.090;13.162;2022-12-07T11:05:39;100505.53;;;2.77;91.81
49835;BME280;35729;52.090;13.162;2022-12-07T11:08:18;100495.16;;;2.79;90.96
49835;BME280;35729;52.090;13.162;2022-12-07T11:10:55;100499.44;;;2.75;89.70
49835;BME280;35729;52.090;13.162;2022-12-07T11:13:33;100502.94;;;2.79;90.59
49835;BME280;35729;52.090;13.162;2022-12-07T11:16:16;100497.75;;;2.80;91.27
49835;BME280;35729;52.090;13.162;2022-12-07T11:18:54;100499.50;;;2.84;91.27
49835;BME280;35729;52.090;13.162;2022-12-07T11:21:30;100503.81;;;2.85;91.87
49835;BME280;35729;52.090;13.162;2022-12-07T11:24:08;100491.75;;;2.86;91.71
49835;BME280;35729;52.090;13.162;2022-12-07T11:26:51;100495.19;;;2.88;92.43
49835;BME280;35729;52.090;13.162;2022-12-07T11:32:31;100489.16;;;2.87;90.18
49835;BME280;35729;52.090;13.162;2022-12-07T11:35:11;100485.72;;;2.91;92.63
49835;BME280;35729;52.090;13.162;2022-12-07T11:37:43;100483.16;;;2.96;92.81
49835;BME280;35729;52.090;13.162;2022-12-07T11:40:18;100490.09;;;2.99;92.01
49835;BME280;35729;52.090;13.162;2022-12-07T11:42:52;100484.03;;;2.98;91.06
49835;BME280;35729;52.090;13.162;2022-12-07T11:45:26;100490.09;;;3.02;89.97
49835;BME280;35729;52.090;13.162;2022-12-07T11:47:57;100496.16;;;3.04;89.60
49835;BME280;35729;52.090;13.162;2022-12-07T11:50:33;100500.50;;;3.05;88.30
49835;BME280;35729;52.090;13.162;2022-12-07T11:53:09;100480.63;;;3.05;89.59
49835;BME280;35729;52.090;13.162;2022-12-07T11:55:45;100486.69;;;3.07;89.18
49835;BME280;35729;52.090;13.162;2022-12-07T11:58:38;100486.69;;;3.09;88.65
49835;BME280;35729;52.090;13.162;2022-12-07T12:01:18;100480.66;;;3.12;89.37
49835;BME280;35729;52.090;13.162;2022-12-07T12:03:56;100486.72;;;3.17;90.07
49835;BME280;35729;52.090;13.162;2022-12-07T12:06:26;100482.41;;;3.19;89.81
49835;BME280;35729;52.090;13.162;2022-12-07T12:08:59;100470.31;;;3.19;88.22
49835;BME280;35729;52.090;13.162;2022-12-07T12:11:44;100480.69;;;3.24;90.37
49835;BME280;35729;52.090;13.162;2022-12-07T12:14:35;100479.84;;;3.28;89.93
49835;BME280;35729;52.090;13.162;2022-12-07T12:17:22;100483.31;;;3.30;86.33
49835;BME280;35729;52.090;13.162;2022-12-07T12:20:00;100481.59;;;3.29;88.87
49835;BME280;35729;52.090;13.162;2022-12-07T12:22:35;100481.59;;;3.31;86.17
49835;BME280;35729;52.090;13.162;2022-12-07T12:25:07;100488.50;;;3.35;89.71
49835;BME280;35729;52.090;13.162;2022-12-07T12:27:46;100481.63;;;3.35;87.61
49835;BME280;35729;52.090;13.162;2022-12-07T12:30:35;100477.28;;;3.31;84.08
49835;BME280;35729;52.090;13.162;2022-12-07T12:33:13;100479.03;;;3.37;89.11
49835;BME280;35729;52.090;13.162;2022-12-07T12:35:44;100475.56;;;3.38;88.76
49835;BME280;35729;52.090;13.162;2022-12-07T12:38:27;100477.28;;;3.34;84.61
49835;BME280;35729;52.090;13.162;2022-12-07T12:40:59;100468.66;;;3.34;85.06
49835;BME280;35729;52.090;13.162;2022-12-07T12:43:45;100466.91;;;3.36;87.35
49835;BME280;35729;52.090;13.162;2022-12-07T12:49:54;100478.16;;;3.36;86.68
49835;BME280;35729;52.090;13.162;2022-12-07T12:52:58;100477.28;;;3.33;86.04
49835;BME280;35729;52.090;13.162;2022-12-07T12:55:54;100462.56;;;3.33;88.43
49835;BME280;35729;52.090;13.162;2022-12-07T12:58:38;100470.34;;;3.32;88.98
49835;BME280;35729;52.090;13.162;2022-12-07T13:01:33;100466.03;;;3.32;88.98
49835;BME280;35729;52.090;13.162;2022-12-07T13:04:27;100466.91;;;3.33;87.72
49835;BME280;35729;52.090;13.162;2022-12-07T13:06:59;100460.00;;;3.30;87.62
49835;BME280;35729;52.090;13.162;2022-12-07T13:09:29;100458.25;;;3.28;88.41
49835;BME280;35729;52.090;13.162;2022-12-07T13:12:04;100458.25;;;3.31;88.36
49835;BME280;35729;52.090;13.162;2022-12-07T13:14:43;100460.00;;;3.29;86.75
49835;BME280;35729;52.090;13.162;2022-12-07T13:20:03;100454.78;;;3.27;90.08
49835;BME280;35729;52.090;13.162;2022-12-07T13:22:53;100452.19;;;3.24;87.91
49835;BME280;35729;52.090;13.162;2022-12-07T13:25:38;100448.72;;;3.22;89.75
49835;BME280;35729;52.090;13.162;2022-12-07T13:28:14;100454.78;;;3.22;89.55